Time;durP1;ratioP1;P1;durP2;ratioP2;P2;SDS_P1;SDS_P2;PMS_P1;PMS_P2;Temp;Humidity;BMP_temperature;BMP_pressure;BME280_temperature;BME280_humidity;BME280_pressure;Samples;Min_cycle;Max_cycle;Signal;HPM_P1;HPM_P2
2021/08/05 00:02:15;;;;;;;21.63;13.43;;;;;;;17.41;72.48;100902.75;4993218;28;20492;-76
2021/08/05 00:04:40;;;;;;;16.92;13.93;;;;;;;17.35;73.10;100899.09;4997546;28;20284;-77
2021/08/05 00:07:06;;;;;;;14.82;12.50;;;;;;;17.28;73.53;100900.91;5005177;28;20105;-76
2021/08/05 00:09:32;;;;;;;18.55;13.20;;;;;;;17.19;74.03;100897.63;4971803;28;20072;-76
2021/08/05 00:11:58;;;;;;;16.92;13.82;;;;;;;17.17;73.97;100894.41;4989277;28;20034;-76
2021/08/05 00:14:24;;;;;;;14.52;12.15;;;;;;;17.17;73.80;100894.41;5000994;28;20089;-76
2021/08/05 00:16:49;;;;;;;15.50;12.18;;;;;;;17.21;73.39;100892.22;4991228;28;20026;-76
2021/08/05 00:19:14;;;;;;;15.93;12.32;;;;;;;17.21;72.96;100898.25;4993616;28;20041;-76
2021/08/05 00:21:40;;;;;;;16.40;13.32;;;;;;;17.20;73.04;100891.41;4988863;28;20028;-77
2021/08/05 00:24:06;;;;;;;17.33;13.52;;;;;;;17.17;73.58;100891.00;5001389;28;20037;-77
2021/08/05 00:26:31;;;;;;;18.52;14.57;;;;;;;17.15;73.78;100893.00;4986775;28;20038;-77
2021/08/05 00:28:56;;;;;;;15.45;13.23;;;;;;;17.12;73.74;100886.31;4987042;28;20034;-77
2021/08/05 00:31:22;;;;;;;18.13;13.00;;;;;;;17.13;73.57;100887.94;4999001;28;20034;-77
2021/08/05 00:33:47;;;;;;;16.98;13.63;;;;;;;17.14;73.29;100879.09;5003929;28;20037;-77
2021/08/05 00:36:13;;;;;;;17.15;13.00;;;;;;;17.16;73.10;100891.97;4984916;28;20030;-76
2021/08/05 00:38:39;;;;;;;15.98;13.10;;;;;;;17.18;73.08;100887.34;4990687;28;20386;-76
2021/08/05 00:41:05;;;;;;;16.63;14.00;;;;;;;17.15;73.10;100885.94;4989717;28;20026;-75
2021/08/05 00:43:34;;;;;;;21.45;15.40;;;;;;;17.13;73.50;100885.34;4992720;28;20026;-77
2021/08/05 00:46:00;;;;;;;19.40;14.43;;;;;;;17.11;73.40;100877.66;4998439;28;20091;-76
2021/08/05 00:48:25;;;;;;;15.15;12.68;;;;;;;17.09;73.74;100878.88;4986449;28;20044;-77
2021/08/05 00:50:51;;;;;;;16.17;12.73;;;;;;;17.09;73.56;100879.69;5008092;28;20026;-76
2021/08/05 00:53:16;;;;;;;19.73;13.10;;;;;;;17.08;73.54;100874.63;4970203;28;20044;-77
2021/08/05 00:55:43;;;;;;;17.02;12.70;;;;;;;17.09;73.54;100871.03;4994405;28;20041;-76
2021/08/05 00:58:09;;;;;;;16.10;12.48;;;;;;;17.08;73.27;100866.78;4992747;28;21176;-76
2021/08/05 01:00:37;;;;;;;18.13;13.57;;;;;;;17.09;72.98;100873.63;4985412;28;20026;-76
2021/08/05 01:03:12;;;;;;;14.05;12.10;;;;;;;17.04;73.50;100861.13;5009098;28;20109;-77
2021/08/05 01:05:42;;;;;;;16.98;13.40;;;;;;;17.02;73.84;100859.72;4984905;28;20480;-76
2021/08/05 01:08:16;;;;;;;16.05;13.57;;;;;;;17.02;73.78;100857.09;4978896;28;20124;-76
2021/08/05 01:10:48;;;;;;;16.58;13.27;;;;;;;17.00;73.59;100859.09;4994868;28;20252;-77
2021/08/05 01:13:33;;;;;;;17.23;13.00;;;;;;;16.99;73.59;100862.72;4988148;28;20033;-77
2021/08/05 01:16:03;;;;;;;18.30;14.77;;;;;;;16.96;74.17;100856.06;4986237;28;20608;-77
2021/08/05 01:18:30;;;;;;;18.92;14.68;;;;;;;16.93;74.32;100857.28;5007729;28;20541;-77
2021/08/05 01:20:59;;;;;;;16.92;13.18;;;;;;;16.92;73.99;100853.03;4990753;28;20028;-77
2021/08/05 01:23:36;;;;;;;19.88;15.70;;;;;;;16.89;74.13;100855.22;4997102;28;20030;-76
2021/08/05 01:26:24;;;;;;;18.75;14.88;;;;;;;16.88;74.56;100854.44;5014765;28;20503;-77
2021/08/05 01:28:50;;;;;;;20.52;17.58;;;;;;;16.87;74.48;100852.00;4986265;28;20025;-76
2021/08/05 01:31:20;;;;;;;22.77;17.38;;;;;;;16.81;75.02;100844.91;5002048;28;20023;-76
2021/08/05 01:33:47;;;;;;;19.10;15.27;;;;;;;16.73;75.55;100851.13;4984258;28;20116;-77
2021/08/05 01:36:13;;;;;;;19.85;15.82;;;;;;;16.71;75.75;100840.84;4994600;28;20029;-76
2021/08/05 01:38:41;;;;;;;18.85;15.13;;;;;;;16.71;75.38;100834.81;4988192;28;20056;-77
2021/08/05 01:41:08;;;;;;;22.15;16.90;;;;;;;16.69;75.30;100840.22;4989594;28;20033;-76
2021/08/05 01:43:35;;;;;;;24.08;19.60;;;;;;;16.68;75.42;100845.66;5016627;28;20087;-77
2021/08/05 01:46:02;;;;;;;25.75;18.23;;;;;;;16.65;75.52;100840.78;4996825;28;20026;-76
2021/08/05 01:48:30;;;;;;;21.83;16.05;;;;;;;16.60;76.01;100843.22;4973165;28;20412;-77
2021/08/05 01:50:56;;;;;;;20.08;16.05;;;;;;;16.58;76.16;100837.38;4975828;28;20076;-76
2021/08/05 01:53:22;;;;;;;22.15;17.40;;;;;;;16.59;75.73;100839.75;4985639;28;20041;-76
2021/08/05 01:55:48;;;;;;;19.65;16.20;;;;;;;16.59;75.42;100831.91;4996702;28;20034;-76
2021/08/05 01:58:13;;;;;;;18.60;15.80;;;;;;;16.59;75.37;100831.91;4989702;28;20038;-77
2021/08/05 02:00:39;;;;;;;20.83;16.13;;;;;;;16.60;75.01;100841.41;4982661;28;20037;-76
2021/08/05 02:03:08;;;;;;;20.90;15.90;;;;;;;16.58;75.14;100827.69;4966507;28;20034;-76
2021/08/05 02:05:58;;;;;;;19.73;14.93;;;;;;;16.54;75.33;100835.13;5003032;28;20025;-76
2021/08/05 02:08:43;;;;;;;24.42;18.70;;;;;;;16.49;75.84;100828.84;4999247;28;20038;-76
2021/08/05 02:11:08;;;;;;;19.02;14.75;;;;;;;16.42;76.21;100828.81;4985066;28;20073;-76
2021/08/05 02:13:40;;;;;;;17.10;14.30;;;;;;;16.34;76.45;100826.38;5009150;28;20046;-77
2021/08/05 02:16:11;;;;;;;20.40;15.38;;;;;;;16.31;76.63;100813.66;4990838;28;20034;-76
2021/08/05 02:18:38;;;;;;;24.27;16.80;;;;;;;16.30;76.64;100822.53;4989042;28;20037;-76
2021/08/05 02:21:04;;;;;;;26.38;17.52;;;;;;;16.27;76.57;100810.63;4973646;28;20040;-76
2021/08/05 02:23:31;;;;;;;25.58;16.80;;;;;;;16.24;76.99;100812.84;5010369;28;20029;-76
2021/08/05 02:25:58;;;;;;;19.60;16.52;;;;;;;16.21;77.33;100816.63;4990639;28;20026;-76
2021/08/05 02:28:25;;;;;;;22.10;16.45;;;;;;;16.22;77.32;100814.81;4993552;28;20407;-77
2021/08/05 02:30:53;;;;;;;19.85;15.75;;;;;;;16.23;77.13;100804.16;4996155;28;20091;-77
2021/08/05 02:33:21;;;;;;;21.67;17.42;;;;;;;16.23;76.99;100808.59;4983249;28;20029;-76
2021/08/05 02:35:47;;;;;;;19.58;15.93;;;;;;;16.23;76.87;100803.38;4996897;28;20032;-76
2021/08/05 02:38:14;;;;;;;20.40;16.20;;;;;;;16.24;76.84;100803.19;5004780;28;20133;-76
2021/08/05 02:40:41;;;;;;;19.30;15.93;;;;;;;16.21;76.95;100805.38;4998922;28;20102;-76
2021/08/05 02:43:08;;;;;;;18.70;14.27;;;;;;;16.21;76.84;100800.13;4986068;28;20057;-76
2021/08/05 02:45:35;;;;;;;19.83;14.63;;;;;;;16.22;76.30;100802.56;4983475;28;20037;-76
2021/08/05 02:48:03;;;;;;;18.42;14.27;;;;;;;16.22;76.38;100805.19;4993584;28;20041;-76
2021/08/05 02:50:30;;;;;;;21.55;16.77;;;;;;;16.23;76.17;100798.13;4960948;28;20129;-76
2021/08/05 02:52:57;;;;;;;20.63;16.45;;;;;;;16.22;76.13;100789.47;4995511;28;20032;-76
2021/08/05 02:55:23;;;;;;;20.77;16.80;;;;;;;16.21;76.30;100795.69;5003184;28;20120;-76
2021/08/05 02:57:52;;;;;;;20.33;15.32;;;;;;;16.21;76.61;100792.28;4965188;28;20034;-76
2021/08/05 03:00:18;;;;;;;21.42;17.00;;;;;;;16.18;76.70;100793.50;4997324;28;20046;-76
2021/08/05 03:02:45;;;;;;;22.30;16.35;;;;;;;16.18;76.48;100793.50;4989159;28;20109;-76
2021/08/05 03:05:11;;;;;;;19.38;15.93;;;;;;;16.17;76.52;100791.88;4970119;28;20045;-76
2021/08/05 03:07:37;;;;;;;22.95;17.95;;;;;;;16.17;76.24;100799.72;4999838;28;20088;-76
2021/08/05 03:10:04;;;;;;;20.85;17.20;;;;;;;16.15;76.19;100791.25;4965070;28;20507;-76
2021/08/05 03:12:30;;;;;;;19.90;15.13;;;;;;;16.15;76.36;100796.47;4978668;28;20030;-76
2021/08/05 03:14:55;;;;;;;23.63;16.98;;;;;;;16.12;76.14;100789.84;5010522;28;20088;-76
2021/08/05 03:17:21;;;;;;;18.20;15.85;;;;;;;16.09;76.75;100792.81;4993177;28;20034;-76
2021/08/05 03:19:46;;;;;;;21.38;17.02;;;;;;;16.09;76.90;100786.78;4986549;28;20042;-76
2021/08/05 03:22:12;;;;;;;23.02;16.90;;;;;;;16.07;76.82;100784.38;5013221;28;20026;-76
2021/08/05 03:24:37;;;;;;;18.90;15.65;;;;;;;16.08;76.86;100793.00;4992865;28;20033;-76
2021/08/05 03:27:03;;;;;;;24.80;17.50;;;;;;;16.09;76.69;100786.78;5004202;28;20029;-77
2021/08/05 03:29:28;;;;;;;20.48;15.90;;;;;;;16.06;76.78;100787.16;4992832;28;20403;-76
2021/08/05 03:31:54;;;;;;;22.30;16.50;;;;;;;16.05;76.74;100788.16;5015216;28;20751;-77
2021/08/05 03:34:19;;;;;;;25.13;18.80;;;;;;;15.99;77.75;100787.13;4993360;28;20029;-77
2021/08/05 03:36:45;;;;;;;23.20;18.77;;;;;;;16.00;77.61;100785.34;5001538;28;20404;-76
2021/08/05 03:39:10;;;;;;;24.65;17.40;;;;;;;15.99;77.57;100779.28;4999944;28;20030;-76
2021/08/05 03:41:36;;;;;;;18.02;14.60;;;;;;;15.96;77.54;100779.69;5005197;28;20063;-76
2021/08/05 03:44:01;;;;;;;22.95;16.92;;;;;;;15.93;77.89;100778.22;5001826;28;20480;-76
2021/08/05 03:46:27;;;;;;;21.55;16.67;;;;;;;15.87;77.88;100776.38;4999674;28;20037;-76
2021/08/05 03:48:52;;;;;;;18.95;15.32;;;;;;;15.85;78.44;100780.19;4989871;28;20049;-76
2021/08/05 03:51:18;;;;;;;22.25;17.05;;;;;;;15.83;78.22;100780.38;5002570;28;20030;-76
2021/08/05 03:53:43;;;;;;;23.90;16.55;;;;;;;15.84;78.25;100779.41;5002305;28;20406;-76
2021/08/05 03:56:09;;;;;;;21.17;16.65;;;;;;;15.82;78.42;100776.16;5007930;28;20034;-76
2021/08/05 03:58:35;;;;;;;22.10;16.17;;;;;;;15.75;78.80;100776.13;4985560;28;20048;-77
2021/08/05 04:01:00;;;;;;;19.73;16.15;;;;;;;15.70;79.21;100777.66;4986827;28;20516;-76
2021/08/05 04:03:26;;;;;;;23.52;15.88;;;;;;;15.68;79.54;100777.03;4993526;28;20511;-76
2021/08/05 04:05:51;;;;;;;24.27;16.48;;;;;;;15.67;79.56;100767.56;4989495;28;20033;-76
2021/08/05 04:08:17;;;;;;;25.80;19.33;;;;;;;15.68;79.56;100774.44;5010807;28;20037;-76
2021/08/05 04:10:42;;;;;;;21.92;17.80;;;;;;;15.66;79.62;100773.81;4991729;28;20038;-76
2021/08/05 04:13:08;;;;;;;24.30;17.40;;;;;;;15.68;79.77;100769.19;5005014;28;20555;-76
2021/08/05 04:15:33;;;;;;;24.40;18.17;;;;;;;15.68;79.67;100767.38;5004698;28;20037;-77
2021/08/05 04:17:58;;;;;;;25.52;19.77;;;;;;;15.68;79.58;100761.34;4995777;28;20491;-76
2021/08/05 04:20:24;;;;;;;23.38;18.42;;;;;;;15.67;79.55;100762.34;5011600;28;20030;-76
2021/08/05 04:22:49;;;;;;;23.20;18.25;;;;;;;15.64;79.92;100770.59;4997229;28;20041;-76
2021/08/05 04:25:16;;;;;;;26.63;20.20;;;;;;;15.62;80.17;100776.00;4982798;28;20026;-76
2021/08/05 04:27:42;;;;;;;23.02;17.80;;;;;;;15.61;80.09;100776.97;4991039;28;20030;-76
2021/08/05 04:30:11;;;;;;;27.63;19.02;;;;;;;15.62;80.12;100780.41;4994048;28;20034;-76
2021/08/05 04:32:37;;;;;;;27.02;20.55;;;;;;;15.62;80.00;100781.22;5011063;28;20466;-76
2021/08/05 04:35:04;;;;;;;23.33;18.55;;;;;;;15.64;79.86;100781.84;4976199;28;20425;-77
2021/08/05 04:37:29;;;;;;;25.10;19.33;;;;;;;15.67;80.07;100780.63;5002966;28;20037;-77
2021/08/05 04:39:55;;;;;;;29.83;20.45;;;;;;;15.68;79.62;100771.81;4997248;28;20022;-76
2021/08/05 04:42:20;;;;;;;24.80;19.33;;;;;;;15.69;79.63;100774.25;4987098;28;20566;-77
2021/08/05 04:44:46;;;;;;;26.48;20.35;;;;;;;15.71;79.88;100768.84;4977967;28;20050;-77
2021/08/05 04:47:11;;;;;;;24.88;19.77;;;;;;;15.72;79.55;100766.00;4992772;28;20659;-76
2021/08/05 04:49:37;;;;;;;27.55;21.02;;;;;;;15.76;79.62;100763.84;4986389;28;20048;-77
2021/08/05 04:52:03;;;;;;;23.67;18.83;;;;;;;15.79;79.42;100765.28;4999761;28;20096;-77
2021/08/05 04:54:28;;;;;;;29.38;20.08;;;;;;;15.81;79.38;100765.91;4988692;28;20021;-77
2021/08/05 04:56:54;;;;;;;27.60;21.00;;;;;;;15.84;79.38;100762.88;4985550;28;20044;-77
2021/08/05 04:59:19;;;;;;;25.92;20.35;;;;;;;15.83;79.45;100749.00;5007489;28;20026;-77
2021/08/05 05:01:45;;;;;;;27.58;20.65;;;;;;;15.84;79.79;100755.03;4973649;28;20034;-77
2021/08/05 05:04:11;;;;;;;28.13;19.80;;;;;;;15.86;79.96;100750.44;5000261;28;20033;-77
2021/08/05 05:06:39;;;;;;;27.70;20.70;;;;;;;15.88;79.75;100741.41;5001050;28;20030;-76
2021/08/05 05:09:05;;;;;;;32.05;24.67;;;;;;;15.94;79.59;100745.06;4988953;28;20450;-76
2021/08/05 05:11:31;;;;;;;29.42;22.63;;;;;;;15.91;79.95;100742.81;4986231;28;20030;-77
2021/08/05 05:13:57;;;;;;;27.00;20.85;;;;;;;15.89;80.14;100745.63;5008378;28;20037;-76
2021/08/05 05:16:23;;;;;;;29.05;21.73;;;;;;;15.92;79.84;100749.69;5003767;28;20047;-77
2021/08/05 05:18:48;;;;;;;29.00;20.75;;;;;;;15.97;79.80;100747.28;4987550;28;20022;-76
2021/08/05 05:21:14;;;;;;;31.13;24.40;;;;;;;16.03;79.40;100740.47;4996545;28;20052;-76
2021/08/05 05:23:40;;;;;;;30.55;22.17;;;;;;;16.09;79.57;100740.50;5003942;28;20031;-76
2021/08/05 05:26:06;;;;;;;35.30;24.20;;;;;;;16.14;79.79;100740.75;5009846;28;20034;-77
2021/08/05 05:28:31;;;;;;;27.42;22.35;;;;;;;16.19;79.94;100745.38;5008901;28;20401;-76
2021/08/05 05:30:58;;;;;;;29.67;22.25;;;;;;;16.26;80.29;100750.66;4980397;28;20080;-77
2021/08/05 05:33:24;;;;;;;28.10;21.15;;;;;;;16.33;80.31;100743.63;5004842;28;20034;-76
2021/08/05 05:35:51;;;;;;;31.05;24.38;;;;;;;16.44;79.85;100752.75;5003169;28;20410;-76
2021/08/05 05:38:16;;;;;;;28.02;20.80;;;;;;;16.51;79.54;100749.13;4991735;28;20034;-77
2021/08/05 05:40:42;;;;;;;40.83;25.70;;;;;;;16.57;78.82;100752.78;4989536;28;20479;-77
2021/08/05 05:43:09;;;;;;;30.13;22.30;;;;;;;16.63;78.68;100749.41;4978519;28;20454;-77
2021/08/05 05:45:35;;;;;;;35.88;23.60;;;;;;;16.70;78.30;100754.63;5001148;28;20026;-77
2021/08/05 05:48:01;;;;;;;28.15;21.13;;;;;;;16.73;78.15;100744.59;4997577;28;20069;-77
2021/08/05 05:50:28;;;;;;;23.23;18.65;;;;;;;16.80;78.02;100757.69;4997404;28;20057;-77
2021/08/05 05:52:53;;;;;;;38.75;28.58;;;;;;;16.89;77.63;100750.47;5004880;28;20748;-77
2021/08/05 05:55:19;;;;;;;32.75;23.95;;;;;;;16.91;78.05;100749.28;4991254;28;20041;-77
2021/08/05 05:57:45;;;;;;;38.42;28.55;;;;;;;16.90;77.55;100752.91;4986328;28;20389;-77
2021/08/05 06:00:11;;;;;;;34.53;21.52;;;;;;;16.96;77.64;100751.31;5003932;28;20041;-77
2021/08/05 06:02:39;;;;;;;36.53;28.42;;;;;;;17.02;77.18;100760.19;5013073;28;20085;-76
2021/08/05 06:05:05;;;;;;;32.63;24.77;;;;;;;17.09;76.60;100764.41;4992768;28;20021;-77
2021/08/05 06:07:42;;;;;;;35.22;26.92;;;;;;;17.18;76.03;100765.03;5013329;28;20037;-76
2021/08/05 06:10:08;;;;;;;35.08;25.42;;;;;;;17.26;75.83;100762.22;4983397;28;20347;-77
2021/08/05 06:12:33;;;;;;;35.13;25.23;;;;;;;17.34;75.52;100766.44;4988915;28;20282;-77
2021/08/05 06:14:58;;;;;;;29.65;22.60;;;;;;;17.39;75.33;100758.00;5014498;28;20037;-78
2021/08/05 06:17:24;;;;;;;27.27;20.10;;;;;;;17.46;75.09;100762.22;5008447;28;20547;-77
2021/08/05 06:19:50;;;;;;;30.50;20.38;;;;;;;17.52;74.84;100765.84;5004425;28;20029;-77
2021/08/05 06:22:15;;;;;;;38.72;26.63;;;;;;;17.57;73.86;100766.03;4995721;28;20042;-77
2021/08/05 06:24:40;;;;;;;30.13;21.48;;;;;;;17.68;73.58;100765.41;5007302;28;20029;-77
2021/08/05 06:27:06;;;;;;;25.15;19.73;;;;;;;17.82;73.62;100762.78;4977188;28;20908;-78
2021/08/05 06:29:32;;;;;;;26.70;19.42;;;;;;;18.18;72.86;100758.91;4992846;28;20034;-77
2021/08/05 06:31:58;;;;;;;27.02;21.60;;;;;;;18.22;72.39;100765.34;4999624;28;20037;-77
2021/08/05 06:34:23;;;;;;;32.53;24.58;;;;;;;18.33;72.15;100762.06;4994575;28;20037;-77
2021/08/05 06:36:49;;;;;;;30.83;24.73;;;;;;;18.25;71.48;100762.28;5013809;28;20025;-77
2021/08/05 06:39:14;;;;;;;27.10;20.50;;;;;;;18.23;71.91;100756.44;5015697;28;20038;-79
2021/08/05 06:41:40;;;;;;;22.60;17.25;;;;;;;18.24;72.09;100760.69;5007577;28;20403;-77
2021/08/05 06:44:05;;;;;;;21.90;16.35;;;;;;;18.24;72.10;100758.06;4994606;28;20503;-77
2021/08/05 06:46:31;;;;;;;23.67;18.75;;;;;;;18.31;71.95;100764.09;4996499;28;20029;-77
2021/08/05 06:48:56;;;;;;;36.35;27.05;;;;;;;18.40;70.60;100754.97;5013812;28;20080;-77
2021/08/05 06:51:21;;;;;;;30.60;23.23;;;;;;;18.27;71.43;100752.38;5009375;28;20036;-77
2021/08/05 06:53:47;;;;;;;29.83;23.35;;;;;;;18.22;71.77;100760.09;5016952;28;20041;-77
2021/08/05 06:56:13;;;;;;;31.90;23.35;;;;;;;18.22;71.84;100753.03;4987635;28;20033;-77
2021/08/05 06:58:38;;;;;;;36.03;25.55;;;;;;;18.42;69.90;100755.56;5000862;28;20027;-78
2021/08/05 07:01:04;;;;;;;27.40;20.25;;;;;;;18.38;70.37;100762.22;5017099;28;20049;-78
2021/08/05 07:03:29;;;;;;;28.23;23.00;;;;;;;18.41;71.32;100759.22;5006353;28;20041;-78
2021/08/05 07:05:55;;;;;;;27.85;22.35;;;;;;;18.40;71.58;100762.03;5002256;28;20029;-78
2021/08/05 07:08:20;;;;;;;35.58;27.17;;;;;;;18.51;70.49;100760.59;5006963;28;20064;-76
2021/08/05 07:10:46;;;;;;;29.80;24.27;;;;;;;18.59;69.48;100761.16;5001156;28;20025;-77
2021/08/05 07:13:11;;;;;;;27.50;21.15;;;;;;;18.68;69.83;100767.78;5000830;28;20056;-78
2021/08/05 07:15:37;;;;;;;34.75;26.63;;;;;;;18.80;69.08;100762.69;4977717;28;20084;-77
2021/08/05 07:18:02;;;;;;;32.13;23.25;;;;;;;18.97;67.25;100760.34;4982792;28;20033;-77
2021/08/05 07:20:28;;;;;;;35.03;23.00;;;;;;;19.11;67.99;100763.69;4989885;28;20026;-77
2021/08/05 07:22:53;;;;;;;30.83;21.83;;;;;;;19.26;68.73;100766.81;4996618;28;20488;-78
2021/08/05 07:25:19;;;;;;;32.03;24.27;;;;;;;19.37;68.59;100767.13;4985365;28;20349;-78
2021/08/05 07:27:46;;;;;;;31.60;24.05;;;;;;;19.34;65.35;100760.47;4992465;28;20029;-77
2021/08/05 07:30:14;;;;;;;25.40;19.83;;;;;;;19.31;65.86;100762.72;5006488;28;20393;-78
2021/08/05 07:32:39;;;;;;;28.10;21.63;;;;;;;19.32;66.41;100764.34;4998425;28;20034;-77
2021/08/05 07:35:06;;;;;;;31.52;23.67;;;;;;;19.39;66.88;100760.63;5004023;28;20037;-75
2021/08/05 07:37:31;;;;;;;28.10;20.33;;;;;;;19.37;67.44;100765.31;5009336;28;20030;-77
2021/08/05 07:39:57;;;;;;;33.25;23.17;;;;;;;19.42;66.15;100757.59;4992665;28;20453;-76
2021/08/05 07:42:23;;;;;;;27.98;19.77;;;;;;;19.39;66.20;100749.31;5007993;28;20033;-78
2021/08/05 07:44:48;;;;;;;32.70;23.17;;;;;;;19.47;65.91;100754.31;4991780;28;20036;-78
2021/08/05 07:47:14;;;;;;;27.63;16.80;;;;;;;19.45;66.39;100757.13;4982166;28;20045;-78
2021/08/05 07:49:40;;;;;;;35.13;23.80;;;;;;;19.46;66.80;100750.06;4987638;28;20120;-77
2021/08/05 07:52:06;;;;;;;27.25;20.45;;;;;;;19.48;67.04;100752.47;5003557;28;20042;-78
2021/08/05 07:54:33;;;;;;;26.90;19.17;;;;;;;19.52;67.08;100740.53;5007348;28;20065;-78
2021/08/05 07:56:58;;;;;;;25.65;17.95;;;;;;;19.56;67.42;100739.06;5016221;28;20038;-78
2021/08/05 07:59:24;;;;;;;26.95;20.00;;;;;;;19.59;68.14;100738.59;4977718;28;20026;-78
2021/08/05 08:01:49;;;;;;;29.08;22.02;;;;;;;19.75;67.04;100737.28;5015055;28;20491;-79
2021/08/05 08:04:15;;;;;;;32.53;21.98;;;;;;;19.99;63.96;100733.00;5013566;28;20076;-76
2021/08/05 08:06:41;;;;;;;34.97;22.63;;;;;;;19.82;64.95;100730.94;5001795;28;20033;-78
2021/08/05 08:09:07;;;;;;;28.30;20.73;;;;;;;19.75;64.32;100729.41;5002486;28;20112;-77
2021/08/05 08:11:34;;;;;;;25.48;21.30;;;;;;;19.80;63.82;100722.47;5022510;28;20068;-77
2021/08/05 08:13:59;;;;;;;27.88;17.08;;;;;;;19.77;64.43;100724.72;5012280;28;20256;-78
2021/08/05 08:16:25;;;;;;;16.75;13.38;;;;;;;19.84;64.99;100725.47;4968712;28;20034;-79
2021/08/05 08:18:51;;;;;;;18.38;12.30;;;;;;;19.90;65.31;100726.41;5003260;28;20048;-78
2021/08/05 08:21:18;;;;;;;23.88;17.45;;;;;;;19.91;63.56;100720.09;4994496;28;20029;-76
2021/08/05 08:23:44;;;;;;;25.67;17.85;;;;;;;19.88;63.82;100721.34;5018273;28;20352;-78
2021/08/05 08:26:10;;;;;;;18.15;12.63;;;;;;;19.90;64.32;100726.41;5011522;28;20042;-78
2021/08/05 08:28:36;;;;;;;28.17;19.60;;;;;;;19.94;63.56;100725.75;4997503;28;20168;-77
2021/08/05 08:31:02;;;;;;;27.98;17.58;;;;;;;20.00;63.51;100722.25;5009945;28;20041;-79
2021/08/05 08:33:27;;;;;;;18.05;14.32;;;;;;;20.02;64.32;100720.19;4986814;28;20033;-79
2021/08/05 08:35:53;;;;;;;19.00;12.90;;;;;;;20.15;64.89;100721.03;4979436;28;20029;-79
2021/08/05 08:38:22;;;;;;;19.33;12.75;;;;;;;20.33;64.57;100713.13;4985439;28;20038;-78
2021/08/05 08:40:49;;;;;;;26.20;17.33;;;;;;;20.64;64.49;100703.41;5015855;28;20518;-77
2021/08/05 08:43:14;;;;;;;24.48;18.67;;;;;;;21.35;62.00;100709.59;5013806;28;20116;-78
2021/08/05 08:45:40;;;;;;;29.88;18.55;;;;;;;21.71;61.04;100705.09;4998013;28;20036;-77
2021/08/05 08:48:06;;;;;;;24.95;15.77;;;;;;;22.15;59.70;100709.94;5009403;28;20030;-77
2021/08/05 08:50:33;;;;;;;21.40;16.15;;;;;;;22.21;59.68;100705.53;4990352;28;20483;-78
2021/08/05 08:53:07;;;;;;;27.15;17.90;;;;;;;22.24;58.81;100705.88;5012560;28;20087;-76
2021/08/05 08:55:34;;;;;;;23.60;16.45;;;;;;;22.19;57.33;100702.34;5002489;28;20072;-76
2021/08/05 08:58:05;;;;;;;26.80;17.30;;;;;;;21.76;58.21;100705.22;5009726;28;20045;-77
2021/08/05 09:00:33;;;;;;;28.80;18.17;;;;;;;21.56;59.51;100710.84;5019049;28;20164;-77
2021/08/05 09:03:00;;;;;;;23.88;14.73;;;;;;;21.41;60.08;100699.94;5015931;28;20435;-77
2021/08/05 09:05:28;;;;;;;19.35;11.57;;;;;;;21.37;61.38;100698.81;4985210;28;20077;-78
2021/08/05 09:07:54;;;;;;;24.30;17.23;;;;;;;21.37;61.43;100704.09;4984573;28;20030;-76
2021/08/05 09:10:19;;;;;;;27.27;18.45;;;;;;;21.43;60.83;100705.00;5001099;28;20105;-76
2021/08/05 09:12:46;;;;;;;20.10;15.13;;;;;;;21.40;61.18;100703.63;5005888;28;20038;-78
2021/08/05 09:15:14;;;;;;;31.33;16.30;;;;;;;21.47;61.43;100700.91;4991837;28;20030;-77
2021/08/05 09:17:42;;;;;;;19.42;13.32;;;;;;;21.52;61.76;100701.00;5005361;28;20029;-79
2021/08/05 09:20:11;;;;;;;24.52;15.00;;;;;;;21.53;61.65;100694.69;5011136;28;20041;-78
2021/08/05 09:22:38;;;;;;;23.10;16.40;;;;;;;21.57;59.25;100696.66;4992164;28;20044;-78
2021/08/05 09:25:22;;;;;;;23.85;14.65;;;;;;;21.70;59.51;100695.59;4990184;28;20121;-78
2021/08/05 09:27:49;;;;;;;23.88;17.35;;;;;;;21.87;58.39;100697.50;5015366;28;20661;-76
2021/08/05 09:30:33;;;;;;;27.02;16.40;;;;;;;22.60;56.96;100692.53;4991626;28;20119;-76
2021/08/05 09:33:10;;;;;;;25.73;15.82;;;;;;;22.57;55.95;100688.53;5011692;28;20029;-76
2021/08/05 09:35:37;;;;;;;25.63;15.82;;;;;;;22.53;56.48;100690.84;4992419;28;20041;-76
2021/08/05 09:38:17;;;;;;;25.92;16.23;;;;;;;22.54;57.18;100686.38;4981236;28;20133;-75
2021/08/05 09:40:43;;;;;;;26.98;17.10;;;;;;;22.21;57.15;100679.97;5001546;28;20041;-77
2021/08/05 09:43:08;;;;;;;18.38;13.30;;;;;;;22.13;57.07;100675.88;5000683;28;20025;-78
2021/08/05 09:45:35;;;;;;;21.05;15.10;;;;;;;22.15;57.65;100675.59;4976897;28;20034;-79
2021/08/05 09:48:01;;;;;;;31.80;17.38;;;;;;;22.01;57.46;100669.81;5016839;28;20049;-78
2021/08/05 09:50:27;;;;;;;18.25;13.95;;;;;;;22.28;56.77;100680.66;5015911;28;20029;-77
2021/08/05 09:53:07;;;;;;;16.20;12.63;;;;;;;22.64;57.24;100670.69;4983676;28;20029;-78
2021/08/05 09:55:32;;;;;;;20.10;14.38;;;;;;;22.93;56.46;100678.53;4984721;28;20038;-78
2021/08/05 09:57:57;;;;;;;17.05;13.80;;;;;;;23.07;53.42;100671.09;4982661;28;20088;-76
2021/08/05 10:00:23;;;;;;;19.58;13.20;;;;;;;23.32;53.67;100670.69;5008166;28;20415;-75
2021/08/05 10:02:50;;;;;;;22.70;11.68;;;;;;;23.64;53.11;100668.19;5013004;28;20022;-80
2021/08/05 10:05:17;;;;;;;15.35;10.48;;;;;;;23.87;53.00;100663.72;5001917;28;20592;-78
2021/08/05 10:07:44;;;;;;;18.67;12.38;;;;;;;24.07;51.90;100666.59;5006415;28;20044;-77
2021/08/05 10:10:10;;;;;;;16.83;11.15;;;;;;;24.58;50.02;100652.22;5019126;28;20037;-77
2021/08/05 10:12:37;;;;;;;17.58;10.02;;;;;;;24.74;49.85;100648.66;5005132;28;20206;-79
2021/08/05 10:15:10;;;;;;;19.08;10.48;;;;;;;24.57;48.95;100655.94;4985326;28;20030;-78
2021/08/05 10:17:37;;;;;;;18.10;10.02;;;;;;;24.52;47.89;100638.13;4992706;28;20496;-77
2021/08/05 10:20:04;;;;;;;16.42;11.57;;;;;;;24.46;48.90;100649.72;4994715;28;20115;-74
2021/08/05 10:22:31;;;;;;;18.45;10.60;;;;;;;24.18;50.31;100642.84;5000653;28;20083;-77
2021/08/05 10:24:59;;;;;;;24.17;12.95;;;;;;;24.05;49.71;100646.69;4990243;28;20115;-81
2021/08/05 10:27:24;;;;;;;19.30;12.70;;;;;;;23.93;51.02;100636.25;4986857;28;20037;-76
2021/08/05 10:29:51;;;;;;;14.07;10.38;;;;;;;24.19;49.92;100634.66;5005551;28;20360;-77
2021/08/05 10:32:19;;;;;;;14.68;11.75;;;;;;;24.29;48.44;100629.44;5011539;28;20037;-77
2021/08/05 10:34:46;;;;;;;15.60;9.23;;;;;;;24.73;47.76;100627.69;4991882;28;20038;-78
2021/08/05 10:37:13;;;;;;;20.63;12.32;;;;;;;24.89;46.73;100625.97;4985154;28;20164;-77
2021/08/05 10:39:43;;;;;;;21.63;11.70;;;;;;;25.14;46.79;100623.44;4997548;28;20061;-78
2021/08/05 10:42:11;;;;;;;19.08;10.85;;;;;;;25.17;48.14;100622.13;4997760;28;20124;-78
2021/08/05 10:44:38;;;;;;;23.75;10.95;;;;;;;25.28;47.10;100617.69;5006487;28;20109;-79
2021/08/05 10:47:07;;;;;;;19.88;12.18;;;;;;;25.52;45.60;100612.75;4996186;28;20045;-79
2021/08/05 10:49:33;;;;;;;12.75;9.75;;;;;;;25.55;45.10;100613.03;4965198;28;20105;-77
2021/08/05 10:51:59;;;;;;;14.25;9.95;;;;;;;25.43;45.47;100601.84;4992267;28;20068;-79
2021/08/05 10:54:52;;;;;;;15.00;9.40;;;;;;;25.65;44.42;100604.28;5016656;28;20030;-79
2021/08/05 10:57:23;;;;;;;14.45;10.77;;;;;;;25.59;44.10;100598.19;4985651;28;20044;-77
2021/08/05 11:00:09;;;;;;;13.93;9.10;;;;;;;25.52;44.59;100596.81;4994897;28;20500;-78
2021/08/05 11:02:55;;;;;;;13.75;7.95;;;;;;;25.81;43.31;100595.31;5005055;28;20095;-78
2021/08/05 11:05:23;;;;;;;13.85;10.32;;;;;;;25.85;42.27;100592.94;4996234;28;20568;-78
2021/08/05 11:07:53;;;;;;;13.48;7.95;;;;;;;26.12;45.31;100600.69;4983749;28;20120;-78
2021/08/05 11:10:25;;;;;;;13.13;7.18;;;;;;;26.08;43.12;100601.50;5007038;28;20097;-78